Time;durP1;ratioP1;P1;durP2;ratioP2;P2;SDS_P1;SDS_P2;PMS_P1;PMS_P2;Temp;Humidity;BMP_temperature;BMP_pressure;BME280_temperature;BME280_humidity;BME280_pressure;Samples;Min_cycle;Max_cycle;Signal;HPM_P1;HPM_P2
2022/04/23 00:01:33;;;;;;;9.20;7.50;;;11.90;99.90;;;;;;5072725;28;20801;-82
2022/04/23 00:03:58;;;;;;;9.23;8.30;;;12.00;99.90;;;;;;5072753;28;20182;-82
2022/04/23 00:06:24;;;;;;;9.23;7.77;;;12.00;99.90;;;;;;5054588;28;20210;-82
2022/04/23 00:08:49;;;;;;;8.70;7.13;;;11.90;99.90;;;;;;5054314;28;20187;-82
2022/04/23 00:11:15;;;;;;;9.97;7.50;;;11.90;99.90;;;;;;5072591;28;20286;-82
2022/04/23 00:13:41;;;;;;;11.13;8.23;;;11.80;99.90;;;;;;5054746;28;20610;-82
2022/04/23 00:16:06;;;;;;;8.43;7.33;;;11.90;99.90;;;;;;5054471;28;20218;-82
2022/04/23 00:18:32;;;;;;;9.53;7.53;;;11.90;99.90;;;;;;5071717;28;20213;-82
2022/04/23 00:20:58;;;;;;;10.63;7.00;;;11.90;99.90;;;;;;5072278;28;20226;-82
2022/04/23 00:23:25;;;;;;;10.00;7.60;;;11.90;99.90;;;;;;5054622;28;20413;-82
2022/04/23 00:25:52;;;;;;;7.77;6.97;;;11.90;99.90;;;;;;5054422;28;20186;-82
2022/04/23 00:28:18;;;;;;;7.80;6.80;;;11.90;99.90;;;;;;5071852;28;20435;-82
2022/04/23 00:30:46;;;;;;;10.40;7.97;;;11.80;99.90;;;;;;5054251;28;20441;-82
2022/04/23 00:33:12;;;;;;;9.20;7.40;;;11.80;99.90;;;;;;5072363;28;20420;-82
2022/04/23 00:35:38;;;;;;;9.50;7.33;;;11.80;99.90;;;;;;5071891;28;20420;-82
2022/04/23 00:38:05;;;;;;;10.37;8.77;;;11.90;99.90;;;;;;5053655;28;20210;-82
2022/04/23 00:40:32;;;;;;;9.53;7.30;;;11.80;99.90;;;;;;5071493;28;20409;-82
2022/04/23 00:42:58;;;;;;;10.03;7.77;;;11.80;99.90;;;;;;5072220;28;20417;-82
2022/04/23 00:45:28;;;;;;;9.90;7.97;;;11.80;99.90;;;;;;5071928;28;20451;-82
2022/04/23 00:47:54;;;;;;;10.13;8.60;;;11.80;99.90;;;;;;5071560;28;20417;-82
2022/04/23 00:50:21;;;;;;;10.20;8.77;;;11.80;99.90;;;;;;5072044;28;20516;-82
2022/04/23 00:52:57;;;;;;;10.73;8.53;;;11.70;99.90;;;;;;5054048;28;20441;-82
2022/04/23 00:55:23;;;;;;;9.00;7.60;;;11.70;99.90;;;;;;5071841;28;20394;-82
2022/04/23 00:57:50;;;;;;;12.50;7.83;;;11.70;99.90;;;;;;5053246;28;20835;-82
2022/04/23 01:00:18;;;;;;;10.07;8.90;;;11.60;99.90;;;;;;5054033;28;20517;-82
2022/04/23 01:02:44;;;;;;;10.10;8.10;;;11.50;99.90;;;;;;5071825;28;20448;-82
2022/04/23 01:05:10;;;;;;;11.93;8.57;;;11.50;99.90;;;;;;5054026;28;20838;-82
2022/04/23 01:07:45;;;;;;;10.13;8.50;;;11.40;99.90;;;;;;5053197;28;20429;-82
2022/04/23 01:10:11;;;;;;;10.70;8.70;;;11.30;99.90;;;;;;5053920;28;20423;-82
2022/04/23 01:12:38;;;;;;;9.17;8.10;;;11.30;99.90;;;;;;5053617;28;20892;-82
2022/04/23 01:15:10;;;;;;;10.60;9.40;;;11.20;99.90;;;;;;5071812;28;20761;-82
2022/04/23 01:17:36;;;;;;;12.10;8.97;;;11.10;99.90;;;;;;5070993;28;20817;-81
2022/04/23 01:20:10;;;;;;;12.97;9.90;;;11.10;99.90;;;;;;5071872;28;20409;-81
2022/04/23 01:22:37;;;;;;;14.53;10.00;;;10.90;99.90;;;;;;5071343;28;20430;-82
2022/04/23 01:25:12;;;;;;;11.33;8.57;;;10.90;99.90;;;;;;5053614;28;20514;-82
2022/04/23 01:27:38;;;;;;;11.30;8.87;;;10.80;99.90;;;;;;5071037;28;20400;-82
2022/04/23 01:30:06;;;;;;;11.23;9.60;;;10.90;99.90;;;;;;5071620;28;20421;-82
2022/04/23 01:32:32;;;;;;;11.57;8.60;;;10.90;99.90;;;;;;5071403;28;20433;-82
2022/04/23 01:34:58;;;;;;;13.63;9.33;;;10.90;99.90;;;;;;5071675;28;20421;-82
2022/04/23 01:37:23;;;;;;;11.70;8.40;;;10.90;99.90;;;;;;5070614;28;20195;-82
2022/04/23 01:39:49;;;;;;;14.13;9.67;;;10.90;99.90;;;;;;5071451;28;20474;-82
2022/04/23 01:42:19;;;;;;;10.50;8.80;;;10.80;99.90;;;;;;5071511;28;20566;-82
2022/04/23 01:44:49;;;;;;;11.40;9.50;;;10.80;99.90;;;;;;5053439;28;20420;-82
2022/04/23 01:47:16;;;;;;;14.90;10.20;;;10.70;99.90;;;;;;5070691;28;20393;-82
2022/04/23 01:49:42;;;;;;;11.90;10.67;;;10.60;99.90;;;;;;5071372;28;20771;-82
2022/04/23 01:52:08;;;;;;;14.67;9.90;;;10.50;99.90;;;;;;5072531;28;20431;-82
2022/04/23 01:54:35;;;;;;;14.43;10.53;;;10.50;99.90;;;;;;5075510;28;20413;-82
2022/04/23 01:57:01;;;;;;;10.87;9.50;;;10.50;99.90;;;;;;5074256;28;20182;-82
2022/04/23 01:59:27;;;;;;;13.37;10.40;;;10.50;99.90;;;;;;5057269;28;20428;-82
2022/04/23 02:01:53;;;;;;;12.03;9.77;;;10.60;99.90;;;;;;5075122;28;20467;-82
2022/04/23 02:04:19;;;;;;;12.37;9.30;;;10.50;99.90;;;;;;5057147;28;20410;-82
2022/04/23 02:06:45;;;;;;;17.43;11.60;;;10.40;99.90;;;;;;5074310;28;20175;-82
2022/04/23 02:09:10;;;;;;;12.97;10.70;;;10.50;99.90;;;;;;5057055;28;20186;-82
2022/04/23 02:11:36;;;;;;;13.73;10.77;;;10.50;99.90;;;;;;5074790;28;21026;-82
2022/04/23 02:14:04;;;;;;;14.77;10.13;;;10.50;99.90;;;;;;5074851;28;20649;-82
2022/04/23 02:16:31;;;;;;;15.60;11.50;;;10.40;99.90;;;;;;5056237;28;20570;-82
2022/04/23 02:18:58;;;;;;;12.90;10.43;;;10.30;99.90;;;;;;5074775;28;20824;-81
2022/04/23 02:21:27;;;;;;;13.90;9.70;;;10.40;99.90;;;;;;5056679;28;20437;-82
2022/04/23 02:23:53;;;;;;;12.83;10.00;;;10.40;99.90;;;;;;5056546;28;20799;-82
2022/04/23 02:26:22;;;;;;;14.70;10.60;;;10.40;99.90;;;;;;5056645;28;20443;-82
2022/04/23 02:28:49;;;;;;;11.70;9.23;;;10.40;99.90;;;;;;5074309;28;20418;-81
2022/04/23 02:31:14;;;;;;;11.60;9.70;;;10.40;99.90;;;;;;5074457;28;20441;-81
2022/04/23 02:33:40;;;;;;;12.63;9.63;;;10.40;99.90;;;;;;5056701;28;20975;-82
2022/04/23 02:36:06;;;;;;;16.63;9.93;;;10.40;99.90;;;;;;5074321;28;20211;-82
2022/04/23 02:38:33;;;;;;;12.80;9.87;;;10.40;99.90;;;;;;5073594;28;20675;-82
2022/04/23 02:40:59;;;;;;;11.77;9.53;;;10.40;99.90;;;;;;5056319;28;20841;-81
2022/04/23 02:43:24;;;;;;;12.93;10.00;;;10.40;99.90;;;;;;5074464;28;20416;-81
2022/04/23 02:45:50;;;;;;;14.50;10.80;;;10.50;99.90;;;;;;5056184;28;20228;-82
2022/04/23 02:48:16;;;;;;;11.83;9.00;;;10.50;99.90;;;;;;5055743;28;20203;-81
2022/04/23 02:50:41;;;;;;;10.50;9.40;;;10.40;99.90;;;;;;5074107;28;20583;-82
2022/04/23 02:53:08;;;;;;;14.13;11.10;;;10.40;99.90;;;;;;5056329;28;20418;-82
2022/04/23 02:55:35;;;;;;;12.30;10.87;;;10.40;99.90;;;;;;5074125;28;20171;-81
2022/04/23 02:58:02;;;;;;;14.50;9.20;;;10.40;99.90;;;;;;5055514;28;20996;-81
2022/04/23 03:00:28;;;;;;;12.30;9.03;;;10.30;99.90;;;;;;5056266;28;20468;-82
2022/04/23 03:02:54;;;;;;;11.70;9.70;;;10.30;99.90;;;;;;5073399;28;20456;-81
2022/04/23 03:05:21;;;;;;;12.73;9.80;;;10.20;99.90;;;;;;5073957;28;20176;-81
2022/04/23 03:07:48;;;;;;;14.10;9.93;;;10.10;99.90;;;;;;5055141;28;20468;-81
2022/04/23 03:10:15;;;;;;;12.10;9.63;;;10.10;99.90;;;;;;5055955;28;20417;-81
2022/04/23 03:12:41;;;;;;;14.07;10.60;;;10.00;99.90;;;;;;5073565;28;20951;-81
2022/04/23 03:15:09;;;;;;;11.90;10.00;;;10.00;99.90;;;;;;5055648;28;20407;-81
2022/04/23 03:17:36;;;;;;;12.47;10.13;;;9.90;99.90;;;;;;5055112;28;20458;-81
2022/04/23 03:20:02;;;;;;;17.43;10.53;;;9.80;99.90;;;;;;5055846;28;20936;-81
2022/04/23 03:22:28;;;;;;;12.97;10.67;;;9.80;99.90;;;;;;5073395;28;20448;-81
2022/04/23 03:24:54;;;;;;;13.50;10.70;;;9.70;99.90;;;;;;5074063;28;20409;-81
2022/04/23 03:27:19;;;;;;;15.23;10.77;;;9.70;99.90;;;;;;5072541;28;20286;-81
2022/04/23 03:29:45;;;;;;;13.10;10.37;;;9.70;99.90;;;;;;5073442;28;20177;-81
2022/04/23 03:32:10;;;;;;;14.67;10.53;;;9.70;99.90;;;;;;5055560;28;20191;-81
2022/04/23 03:34:37;;;;;;;16.77;10.53;;;9.60;99.90;;;;;;5073376;28;20168;-81
2022/04/23 03:37:03;;;;;;;13.83;10.30;;;9.60;99.90;;;;;;5072609;28;20194;-81
2022/04/23 03:39:29;;;;;;;15.57;9.93;;;9.60;99.90;;;;;;5055325;28;20434;-81
2022/04/23 03:41:55;;;;;;;13.80;10.00;;;9.60;99.90;;;;;;5055190;28;20999;-81
2022/04/23 03:44:21;;;;;;;13.13;10.40;;;9.50;99.90;;;;;;5055250;28;20607;-81
2022/04/23 03:46:46;;;;;;;13.10;9.43;;;9.50;99.90;;;;;;5054483;28;20673;-82
2022/04/23 03:49:12;;;;;;;14.93;10.43;;;9.50;99.90;;;;;;5073136;28;20513;-81
2022/04/23 03:51:37;;;;;;;12.40;10.30;;;9.50;99.90;;;;;;5055167;28;20195;-81
2022/04/23 03:54:03;;;;;;;14.00;11.33;;;9.40;99.90;;;;;;5055159;28;20181;-81
2022/04/23 03:56:28;;;;;;;14.70;10.80;;;9.40;99.90;;;;;;5054414;28;20179;-81
2022/04/23 03:58:55;;;;;;;11.80;9.93;;;9.40;99.90;;;;;;5072900;28;20183;-81
2022/04/23 04:01:20;;;;;;;11.70;9.20;;;9.40;99.90;;;;;;5055068;28;20195;-82
2022/04/23 04:03:46;;;;;;;12.10;9.70;;;9.30;99.90;;;;;;5072938;28;20770;-81
2022/04/23 04:06:11;;;;;;;13.00;10.10;;;9.30;99.90;;;;;;5054735;28;20190;-81
2022/04/23 04:08:37;;;;;;;15.10;11.20;;;9.30;99.90;;;;;;5054349;28;20281;-81
2022/04/23 04:11:03;;;;;;;13.33;9.37;;;9.30;99.90;;;;;;5072487;28;20566;-81
2022/04/23 04:15:56;;;;;;;14.90;10.90;;;9.30;99.90;;;;;;5109011;28;20221;-89
2022/04/23 04:18:23;;;;;;;14.40;9.87;;;9.30;99.90;;;;;;5112439;28;20416;-88
2022/04/23 04:20:49;;;;;;;13.77;10.30;;;9.20;99.90;;;;;;5112648;28;20177;-89
2022/04/23 04:23:16;;;;;;;16.20;11.20;;;9.20;99.90;;;;;;5112944;28;20412;-89
2022/04/23 04:25:42;;;;;;;13.83;10.50;;;9.20;99.90;;;;;;5112762;28;21145;-89
2022/04/23 04:28:09;;;;;;;14.43;11.93;;;9.20;99.90;;;;;;5112074;28;20951;-89
2022/04/23 04:33:19;;;;;;;15.57;9.90;;;9.10;99.90;;;;;;5114036;28;20414;-89
2022/04/23 04:35:44;;;;;;;12.27;9.73;;;9.10;99.90;;;;;;5112292;28;20551;-89
2022/04/23 04:38:13;;;;;;;14.10;11.10;;;9.10;99.90;;;;;;5112086;28;20936;-88
2022/04/23 04:40:38;;;;;;;15.27;10.17;;;9.10;99.90;;;;;;5112765;28;20170;-88
2022/04/23 04:43:04;;;;;;;12.37;10.70;;;9.10;99.90;;;;;;5113844;28;20410;-88
2022/04/23 04:45:33;;;;;;;16.20;10.23;;;9.10;99.90;;;;;;5113490;28;20190;-89
2022/04/23 04:47:58;;;;;;;13.93;11.00;;;9.20;99.90;;;;;;5112036;28;20452;-87
2022/04/23 04:50:24;;;;;;;13.03;10.20;;;9.20;99.90;;;;;;5113442;28;20422;-87
2022/04/23 04:52:50;;;;;;;13.50;11.13;;;9.20;99.90;;;;;;5113686;28;20166;-87
2022/04/23 04:55:16;;;;;;;14.40;11.30;;;9.20;99.90;;;;;;5112839;28;20218;-87
2022/04/23 04:57:42;;;;;;;12.70;9.97;;;9.20;99.90;;;;;;5112885;28;20181;-87
2022/04/23 05:00:08;;;;;;;12.30;10.37;;;9.10;99.90;;;;;;5112323;28;20419;-87
2022/04/23 05:02:34;;;;;;;13.70;10.37;;;9.20;99.90;;;;;;5112658;28;20286;-87
2022/04/23 05:05:00;;;;;;;16.53;11.87;;;9.20;99.90;;;;;;5112509;28;20451;-87
2022/04/23 05:07:25;;;;;;;15.40;11.50;;;9.20;99.90;;;;;;5111704;28;20662;-87
2022/04/23 05:09:51;;;;;;;13.20;9.60;;;9.20;99.90;;;;;;5113428;28;20178;-87
2022/04/23 05:12:16;;;;;;;15.20;11.37;;;9.20;99.90;;;;;;5112130;28;20174;-87
2022/04/23 05:14:42;;;;;;;14.50;10.73;;;9.20;99.90;;;;;;5111859;28;20241;-87
2022/04/23 05:17:08;;;;;;;13.07;9.93;;;9.30;99.90;;;;;;5113307;28;20257;-87
2022/04/23 05:19:33;;;;;;;13.90;10.70;;;9.30;99.90;;;;;;5111821;28;20174;-87
2022/04/23 05:21:59;;;;;;;14.30;10.27;;;9.40;99.90;;;;;;5111881;28;20411;-87
2022/04/23 05:24:25;;;;;;;13.87;10.80;;;9.40;99.90;;;;;;5113123;28;20251;-87
2022/04/23 05:26:50;;;;;;;14.67;10.70;;;9.50;99.90;;;;;;5114454;28;20178;-87
2022/04/23 05:29:16;;;;;;;15.93;11.70;;;9.60;99.90;;;;;;5116287;28;20197;-87
2022/04/23 05:31:41;;;;;;;14.07;10.87;;;9.70;99.90;;;;;;5116010;28;20266;-86
2022/04/23 05:34:07;;;;;;;14.87;11.17;;;9.80;99.90;;;;;;5115776;28;20933;-87
2022/04/23 05:36:33;;;;;;;17.60;11.90;;;9.90;99.90;;;;;;5116102;28;20696;-87
2022/04/23 05:38:58;;;;;;;15.07;11.60;;;9.90;99.90;;;;;;5115994;28;20181;-87
2022/04/23 05:41:24;;;;;;;14.40;11.23;;;10.00;99.90;;;;;;5115970;28;20182;-87
2022/04/23 05:43:50;;;;;;;16.57;11.40;;;10.10;99.90;;;;;;5115930;28;20205;-87
2022/04/23 05:46:17;;;;;;;14.43;12.20;;;10.10;99.90;;;;;;5115808;28;20766;-87
2022/04/23 05:48:43;;;;;;;18.13;11.93;;;10.20;99.90;;;;;;5117450;28;20443;-87
2022/04/23 05:51:09;;;;;;;17.10;13.17;;;10.30;99.90;;;;;;5116019;28;20411;-87
2022/04/23 05:53:35;;;;;;;18.07;12.73;;;10.40;99.90;;;;;;5116965;28;20898;-87
2022/04/23 05:56:01;;;;;;;12.80;11.27;;;10.50;99.90;;;;;;5117103;28;20174;-87
2022/04/23 05:58:26;;;;;;;16.60;13.30;;;10.60;99.90;;;;;;5115687;28;20415;-87
2022/04/23 06:00:52;;;;;;;17.40;12.57;;;10.70;99.90;;;;;;5115605;28;20668;-87
2022/04/23 06:03:19;;;;;;;18.03;12.60;;;10.80;99.90;;;;;;5115938;28;20253;-87
2022/04/23 06:05:44;;;;;;;15.50;12.40;;;10.90;99.90;;;;;;5115330;28;20522;-87
2022/04/23 06:08:10;;;;;;;19.10;13.67;;;11.10;99.90;;;;;;5116813;28;20551;-87
2022/04/23 06:10:36;;;;;;;16.13;12.23;;;11.20;99.90;;;;;;5115376;28;20170;-87
2022/04/23 06:13:02;;;;;;;15.80;12.57;;;11.20;99.90;;;;;;5115248;28;20193;-87
2022/04/23 06:15:27;;;;;;;18.23;13.33;;;11.30;99.90;;;;;;5115186;28;20213;-87
2022/04/23 06:17:53;;;;;;;14.80;12.20;;;11.40;99.90;;;;;;5116527;28;20783;-87
2022/04/23 06:20:19;;;;;;;22.37;13.40;;;11.50;99.90;;;;;;5115285;28;20659;-87
2022/04/23 06:22:44;;;;;;;19.53;13.97;;;11.70;99.90;;;;;;5116519;28;20261;-87
2022/04/23 06:25:10;;;;;;;14.50;12.20;;;11.80;99.90;;;;;;5115039;28;20205;-87
2022/04/23 06:27:37;;;;;;;19.83;14.07;;;11.80;99.90;;;;;;5114786;28;20250;-87
2022/04/23 06:30:04;;;;;;;20.97;13.13;;;11.90;99.90;;;;;;5116095;28;20700;-87
2022/04/23 06:32:29;;;;;;;14.77;11.30;;;12.00;99.90;;;;;;5114778;28;20464;-87
2022/04/23 06:34:55;;;;;;;15.77;12.63;;;12.20;99.90;;;;;;5114809;28;20439;-87
2022/04/23 06:37:31;;;;;;;17.70;13.20;;;12.40;99.90;;;;;;5113847;28;20181;-89
2022/04/23 06:39:57;;;;;;;16.07;11.87;;;12.50;99.90;;;;;;5114915;28;20173;-89
2022/04/23 06:42:24;;;;;;;15.07;12.47;;;12.70;99.90;;;;;;5114860;28;20783;-89
2022/04/23 06:44:50;;;;;;;14.20;11.40;;;12.80;99.90;;;;;;5115042;28;20514;-89
2022/04/23 06:47:29;;;;;;;13.90;11.30;;;12.90;99.90;;;;;;5114824;28;21282;-89
2022/04/23 06:50:00;;;;;;;15.30;11.10;;;13.10;99.90;;;;;;5114780;28;20437;-89
2022/04/23 06:52:26;;;;;;;15.60;11.07;;;13.20;99.90;;;;;;5115646;28;20399;-88
2022/04/23 06:55:00;;;;;;;11.50;10.23;;;13.40;99.90;;;;;;5114379;28;20489;-89
2022/04/23 06:57:28;;;;;;;14.60;10.60;;;13.50;99.90;;;;;;5115850;28;20851;-89
2022/04/23 07:01:06;;;;;;;15.50;11.03;;;13.60;99.90;;;;;;5114611;28;20455;-90
2022/04/23 07:03:44;;;;;;;13.27;9.83;;;13.70;99.90;;;;;;5104918;28;20429;-90
2022/04/23 07:06:11;;;;;;;14.53;11.03;;;13.90;99.90;;;;;;5114352;28;20417;-89
2022/04/23 07:08:40;;;;;;;12.83;9.07;;;14.00;99.90;;;;;;5114658;28;20542;-89
2022/04/23 07:11:09;;;;;;;12.13;9.77;;;14.10;99.90;;;;;;5114461;28;20934;-89
2022/04/23 07:14:17;;;;;;;13.63;11.10;;;14.20;99.90;;;;;;5136652;28;20427;-89
2022/04/23 07:16:49;;;;;;;14.43;10.20;;;14.30;99.90;;;;;;5117848;28;20416;-89
2022/04/23 07:19:55;;;;;;;13.50;10.23;;;14.50;99.90;;;;;;5095352;28;20454;-89
2022/04/23 07:22:30;;;;;;;10.70;8.90;;;14.60;99.90;;;;;;5091826;28;20428;-90
2022/04/23 07:25:10;;;;;;;9.57;8.50;;;14.70;99.90;;;;;;5093862;28;20451;-89
2022/04/23 07:27:36;;;;;;;11.90;9.00;;;14.90;99.90;;;;;;5093683;28;20408;-89
2022/04/23 07:30:23;;;;;;;13.63;9.90;;;15.00;99.90;;;;;;5093357;28;20764;-89
2022/04/23 07:33:05;;;;;;;11.83;9.67;;;15.10;99.90;;;;;;5093349;28;20474;-90
2022/04/23 07:38:37;;;;;;;11.80;8.50;;;15.40;99.90;;;;;;5093117;28;20459;-89
2022/04/23 07:41:10;;;;;;;10.80;8.20;;;15.50;99.90;;;;;;5092507;28;20519;-89
2022/04/23 07:47:04;;;;;;;11.03;7.90;;;15.70;99.90;;;;;;5051891;28;20480;-90
2022/04/23 07:49:37;;;;;;;10.50;7.97;;;15.80;99.90;;;;;;5034824;28;20429;-89
2022/04/23 07:55:47;;;;;;;10.40;8.10;;;16.00;99.90;;;;;;5069133;28;20433;-90
2022/04/23 07:58:30;;;;;;;10.40;8.53;;;16.10;99.90;;;;;;5091922;28;20452;-89
2022/04/23 08:01:38;;;;;;;9.40;8.00;;;16.30;99.90;;;;;;5093094;28;20793;-89
2022/04/23 08:04:03;;;;;;;11.77;7.67;;;16.40;99.90;;;;;;5054332;28;20444;-87
2022/04/23 08:07:10;;;;;;;9.67;7.73;;;16.40;99.90;;;;;;5091733;28;20415;-87
2022/04/23 08:15:51;;;;;;;11.10;8.10;;;16.70;99.90;;;;;;5107802;22;20975;-78
2022/04/23 08:18:18;;;;;;;11.70;7.40;;;16.90;99.90;;;;;;5085512;28;20513;-78
2022/04/23 08:20:45;;;;;;;10.03;8.60;;;17.00;99.90;;;;;;5084706;28;20178;-78
2022/04/23 08:23:10;;;;;;;10.63;7.20;;;17.10;99.90;;;;;;5085097;28;20452;-78
2022/04/23 08:25:36;;;;;;;10.30;8.33;;;17.70;99.90;;;;;;5086599;28;20420;-77
2022/04/23 08:30:47;;;;;;;8.13;7.20;;;20.10;99.90;;;;;;5103223;28;20710;-79
2022/04/23 08:33:14;;;;;;;8.93;8.00;;;21.00;99.90;;;;;;5073028;28;20436;-80
2022/04/23 08:35:40;;;;;;;10.57;7.70;;;21.70;99.90;;;;;;5053717;28;20932;-80
2022/04/23 08:38:07;;;;;;;8.53;7.40;;;23.10;99.90;;;;;;5056692;28;20453;-79
2022/04/23 08:40:43;;;;;;;8.47;6.87;;;23.50;99.90;;;;;;5058235;28;20413;-80
2022/04/23 08:43:09;;;;;;;9.07;7.07;;;23.90;99.90;;;;;;5056741;28;20436;-79
2022/04/23 08:45:38;;;;;;;8.37;7.57;;;24.60;97.10;;;;;;5057575;28;20440;-80
2022/04/23 08:48:09;;;;;;;11.03;7.50;;;25.40;94.10;;;;;;5061791;28;20430;-78
2022/04/23 08:50:37;;;;;;;7.33;6.27;;;25.90;88.90;;;;;;5063852;28;20445;-78
2022/04/23 08:53:08;;;;;;;9.50;7.50;;;26.20;83.10;;;;;;5059956;28;20441;-78
2022/04/23 08:55:34;;;;;;;8.03;7.23;;;26.90;77.90;;;;;;5055435;28;20782;-78
2022/04/23 08:58:00;;;;;;;8.87;7.00;;;27.30;74.90;;;;;;5067985;28;20453;-78
2022/04/23 09:00:26;;;;;;;8.13;6.90;;;28.10;73.10;;;;;;5055313;28;20532;-79
2022/04/23 09:02:52;;;;;;;7.73;6.37;;;28.70;67.80;;;;;;5053032;28;20449;-80
2022/04/23 09:05:19;;;;;;;7.17;6.47;;;28.40;62.30;;;;;;5055140;28;20485;-81
2022/04/23 09:07:56;;;;;;;9.40;7.50;;;28.70;63.30;;;;;;5056904;28;20488;-80
2022/04/23 09:10:42;;;;;;;8.30;6.50;;;28.90;57.60;;;;;;5055141;28;20433;-80
2022/04/23 09:13:07;;;;;;;7.07;6.27;;;29.40;57.10;;;;;;5056396;28;20436;-80
2022/04/23 09:24:11;;;;;;;7.70;6.37;;;31.50;51.10;;;;;;5080456;28;20771;-80
2022/04/23 09:26:40;;;;;;;7.67;6.53;;;31.10;49.90;;;;;;5041516;28;20823;-80
2022/04/23 09:29:18;;;;;;;8.27;6.60;;;31.10;48.40;;;;;;5043627;28;20437;-81
2022/04/23 09:31:44;;;;;;;7.00;5.80;;;31.60;48.50;;;;;;5043096;28;20459;-80
2022/04/23 09:34:23;;;;;;;9.40;6.57;;;32.50;45.90;;;;;;5061550;28;20432;-80
2022/04/23 09:36:56;;;;;;;7.50;6.67;;;32.60;45.00;;;;;;5054657;28;20433;-80
2022/04/23 09:39:33;;;;;;;6.43;5.30;;;33.10;43.50;;;;;;5047330;28;20468;-79
2022/04/23 09:42:15;;;;;;;6.10;5.40;;;33.70;42.80;;;;;;5061852;28;20427;-79
2022/04/23 09:44:44;;;;;;;5.97;5.37;;;34.20;42.10;;;;;;5034612;28;20426;-79
2022/04/23 09:47:11;;;;;;;9.00;6.40;;;35.00;40.10;;;;;;5034586;28;20815;-80
2022/04/23 09:49:38;;;;;;;7.37;6.67;;;35.50;40.00;;;;;;5033942;28;20434;-80
2022/04/23 09:52:07;;;;;;;6.50;5.90;;;35.10;40.00;;;;;;5034138;28;20432;-80
2022/04/23 09:54:35;;;;;;;7.80;6.33;;;35.60;38.50;;;;;;5034301;28;20792;-80
2022/04/23 09:57:01;;;;;;;7.00;6.30;;;35.70;37.20;;;;;;5034093;28;20537;-80
2022/04/23 09:59:27;;;;;;;7.30;6.20;;;35.90;36.80;;;;;;5035565;28;20465;-81
2022/04/23 10:01:55;;;;;;;7.27;6.57;;;35.50;37.40;;;;;;5035045;28;20410;-80
2022/04/23 10:04:29;;;;;;;6.97;6.27;;;34.90;37.40;;;;;;5054265;28;20455;-80
2022/04/23 10:06:56;;;;;;;6.93;6.33;;;35.20;36.00;;;;;;5055040;28;20756;-80
2022/04/23 10:09:27;;;;;;;7.63;6.77;;;35.40;36.70;;;;;;5058138;28;20417;-78
2022/04/23 10:12:05;;;;;;;8.00;7.20;;;35.50;35.80;;;;;;5078343;28;20424;-79
2022/04/23 10:14:39;;;;;;;8.77;7.87;;;35.80;36.30;;;;;;5082521;28;20469;-80
2022/04/23 10:17:08;;;;;;;6.93;6.07;;;35.90;35.50;;;;;;5091669;28;20443;-79
2022/04/23 10:19:35;;;;;;;9.33;5.97;;;35.90;35.20;;;;;;5093191;28;20539;-79
2022/04/23 10:22:29;;;;;;;6.20;5.60;;;35.50;35.10;;;;;;5106101;28;20408;-79
2022/04/23 10:25:06;;;;;;;6.70;6.00;;;35.60;34.50;;;;;;5071721;28;20986;-80
2022/04/23 10:27:34;;;;;;;7.30;6.00;;;35.50;34.70;;;;;;5085219;28;20440;-79
2022/04/23 10:30:02;;;;;;;7.57;6.10;;;35.70;35.50;;;;;;5080237;22;21387;-87
2022/04/23 10:32:40;;;;;;;6.33;5.73;;;35.80;33.90;;;;;;5081672;28;20925;-88
2022/04/23 10:35:18;;;;;;;6.93;6.10;;;35.50;35.20;;;;;;5037094;28;21004;-89
2022/04/23 10:37:49;;;;;;;6.07;4.93;;;35.50;34.10;;;;;;5036133;28;20837;-88
2022/04/23 10:40:18;;;;;;;6.37;5.70;;;36.30;34.20;;;;;;5036789;28;20446;-87
2022/04/23 10:43:07;;;;;;;6.73;5.50;;;36.50;34.30;;;;;;5036767;28;20419;-88
2022/04/23 10:45:33;;;;;;;6.03;5.43;;;35.40;34.80;;;;;;5036488;28;20418;-88
2022/04/23 10:48:29;;;;;;;7.67;6.70;;;35.00;34.30;;;;;;5036107;28;20780;-88
2022/04/23 10:51:02;;;;;;;7.10;6.40;;;34.80;34.80;;;;;;5037084;28;20776;-87
2022/04/23 10:54:06;;;;;;;7.17;6.53;;;34.90;35.50;;;;;;5054478;28;20917;-88
2022/04/23 10:56:51;;;;;;;6.30;5.67;;;35.00;35.50;;;;;;5053518;28;20932;-89
2022/04/23 10:59:38;;;;;;;6.63;5.47;;;33.90;35.10;;;;;;5036391;28;20457;-88
2022/04/23 11:02:06;;;;;;;6.30;5.70;;;33.30;35.30;;;;;;5036650;28;20433;-88
2022/04/23 11:04:35;;;;;;;6.60;5.90;;;33.20;36.20;;;;;;5054265;28;20414;-87
2022/04/23 11:12:36;;;;;;;7.60;6.83;;;33.40;34.80;;;;;;5054815;28;20413;-88
2022/04/23 11:15:13;;;;;;;7.60;6.83;;;31.50;35.80;;;;;;5036268;28;20490;-88
2022/04/23 11:17:38;;;;;;;6.87;6.17;;;31.10;37.20;;;;;;5035588;28;20825;-88
2022/04/23 11:20:05;;;;;;;6.77;6.07;;;31.60;38.50;;;;;;5036505;28;20499;-88
2022/04/23 11:22:32;;;;;;;6.10;5.33;;;31.20;36.70;;;;;;5036329;28;20229;-88
2022/04/23 11:24:59;;;;;;;6.17;5.47;;;31.10;36.20;;;;;;5054385;28;20411;-87
2022/04/23 11:27:32;;;;;;;5.60;5.00;;;31.70;37.60;;;;;;5036257;28;20418;-87
2022/04/23 11:29:58;;;;;;;6.93;5.90;;;31.10;37.30;;;;;;5036360;28;20438;-87
2022/04/23 11:32:25;;;;;;;7.97;6.43;;;30.80;37.50;;;;;;5036682;28;21098;-87
2022/04/23 11:34:57;;;;;;;6.93;6.23;;;30.80;37.50;;;;;;5036086;28;20179;-88
2022/04/23 11:37:37;;;;;;;6.60;5.80;;;31.70;37.30;;;;;;5035458;28;20982;-89
2022/04/23 11:40:10;;;;;;;6.40;5.70;;;33.20;37.60;;;;;;5036521;28;20438;-88
2022/04/23 11:42:40;;;;;;;6.90;6.00;;;33.50;35.60;;;;;;5036308;28;20454;-86
2022/04/23 11:45:08;;;;;;;8.13;6.00;;;33.60;35.40;;;;;;5036538;28;20426;-91
2022/04/23 11:47:34;;;;;;;7.60;6.80;;;33.60;35.90;;;;;;5035514;28;20509;-88
2022/04/23 11:50:13;;;;;;;8.17;6.47;;;34.30;34.90;;;;;;5053604;28;20874;-90
2022/04/23 11:52:40;;;;;;;7.40;6.40;;;34.00;35.10;;;;;;5035780;28;20258;-89
2022/04/23 11:55:10;;;;;;;7.67;6.67;;;33.80;34.40;;;;;;5035772;28;20418;-88
2022/04/23 11:57:36;;;;;;;6.57;5.97;;;32.40;34.90;;;;;;5035149;28;21083;-89
2022/04/23 12:00:04;;;;;;;7.50;6.80;;;31.70;35.50;;;;;;5035736;28;20524;-90
2022/04/23 12:02:31;;;;;;;6.50;5.17;;;31.10;36.50;;;;;;5035607;28;20175;-88
2022/04/23 12:04:58;;;;;;;5.53;4.83;;;31.10;36.80;;;;;;5035599;28;20418;-90
2022/04/23 12:07:25;;;;;;;6.30;5.03;;;31.60;35.80;;;;;;5052541;28;20414;-90
2022/04/23 12:09:53;;;;;;;5.70;5.03;;;32.40;36.80;;;;;;5035521;28;20985;-89
2022/04/23 12:12:24;;;;;;;6.70;5.70;;;33.70;34.70;;;;;;5053453;28;20460;-84
2022/04/23 12:14:51;;;;;;;6.93;6.20;;;33.70;33.80;;;;;;5053558;28;20415;-84
2022/04/23 12:17:27;;;;;;;6.30;5.63;;;33.10;34.70;;;;;;5034699;28;20953;-84
2022/04/23 12:19:55;;;;;;;6.80;6.10;;;32.60;35.00;;;;;;5035772;28;20532;-84
2022/04/23 12:22:29;;;;;;;6.80;5.90;;;33.30;35.00;;;;;;5053745;28;20429;-83
2022/04/23 12:25:08;;;;;;;5.80;5.20;;;33.30;34.50;;;;;;5052729;28;20429;-83
2022/04/23 12:27:59;;;;;;;6.30;5.43;;;31.90;34.30;;;;;;5034920;28;20418;-84
2022/04/23 12:41:59;;;;;;;7.73;5.27;;;28.30;39.40;;;;;;5052355;28;20529;-84
2022/04/23 12:44:32;;;;;;;6.20;5.60;;;29.20;39.80;;;;;;5034299;28;20438;-85
2022/04/23 12:47:03;;;;;;;6.50;5.60;;;29.50;39.10;;;;;;5051605;28;20511;-84
2022/04/23 12:50:00;;;;;;;6.30;5.33;;;29.30;38.20;;;;;;5033903;28;20445;-85
2022/04/23 12:52:29;;;;;;;5.50;4.70;;;28.60;38.60;;;;;;5022527;28;20608;-85
2022/04/23 12:55:13;;;;;;;6.83;5.13;;;29.30;38.50;;;;;;5035642;28;20437;-84
2022/04/23 12:57:47;;;;;;;7.00;6.27;;;29.50;40.10;;;;;;5051325;28;20457;-85
2022/04/23 13:00:16;;;;;;;7.40;6.60;;;29.80;39.50;;;;;;5051715;28;20477;-85
2022/04/23 13:02:43;;;;;;;7.53;6.80;;;29.50;38.90;;;;;;5034094;28;20430;-83
2022/04/23 13:05:10;;;;;;;7.27;6.53;;;28.60;38.40;;;;;;5050233;28;20418;-85
2022/04/23 13:10:21;;;;;;;7.87;6.57;;;28.60;40.20;;;;;;5051547;28;20511;-88
2022/04/23 13:12:47;;;;;;;8.90;6.30;;;28.40;39.30;;;;;;5034035;28;20841;-84
2022/04/23 13:15:15;;;;;;;7.30;6.03;;;27.30;39.50;;;;;;5051314;28;20436;-84
2022/04/23 13:17:45;;;;;;;7.70;6.20;;;26.50;41.10;;;;;;5033422;28;20457;-83
2022/04/23 13:20:12;;;;;;;7.83;6.10;;;26.10;41.70;;;;;;5033515;28;20434;-84
2022/04/23 13:22:37;;;;;;;8.27;6.30;;;27.10;41.40;;;;;;5033258;28;20427;-86
2022/04/23 13:25:05;;;;;;;7.83;6.93;;;28.50;42.00;;;;;;5051306;28;20437;-86
2022/04/23 13:27:31;;;;;;;8.27;7.40;;;29.60;39.90;;;;;;5051107;28;20164;-86
2022/04/23 13:29:57;;;;;;;8.97;7.33;;;30.40;38.00;;;;;;5036501;28;20529;-86
2022/04/23 13:32:23;;;;;;;7.37;6.20;;;30.90;39.20;;;;;;5033952;28;20441;-88
2022/04/23 13:35:16;;;;;;;7.67;6.50;;;31.50;37.20;;;;;;5033018;28;20571;-88
2022/04/23 13:37:43;;;;;;;8.53;6.50;;;31.90;36.70;;;;;;5027329;28;20243;-86
2022/04/23 13:40:12;;;;;;;8.63;6.93;;;32.10;36.10;;;;;;5033843;28;20486;-91
2022/04/23 13:42:39;;;;;;;6.93;6.20;;;31.90;37.00;;;;;;5051279;28;20460;-86
2022/04/23 13:45:06;;;;;;;7.10;6.20;;;32.30;37.70;;;;;;5033684;28;20909;-86